Time;durP1;ratioP1;P1;durP2;ratioP2;P2;SDS_P1;SDS_P2;PMS_P1;PMS_P2;Temp;Humidity;BMP_temperature;BMP_pressure;BME280_temperature;BME280_humidity;BME280_pressure;Samples;Min_cycle;Max_cycle;Signal;HPM_P1;HPM_P2
2023/05/02 00:00:46;;;;;;;;;19.33;17.67;;;;;-147.17;100.00;-15917.19;4953546;28;50942;-33
2023/05/02 00:03:12;;;;;;;;;14.00;14.00;;;;;-147.17;100.00;-15917.19;4953366;28;51082;-32
2023/05/02 00:05:37;;;;;;;;;17.33;16.33;;;;;-147.17;100.00;-15917.19;4950397;28;51889;-33
2023/05/02 00:08:02;;;;;;;;;15.33;15.33;;;;;-147.17;100.00;-15917.19;4951913;28;50978;-33
2023/05/02 00:10:28;;;;;;;;;16.00;14.67;;;;;-147.17;100.00;-15917.19;4943962;28;50892;-34
2023/05/02 00:12:53;;;;;;;;;11.67;9.33;;;;;-147.17;100.00;-15917.19;4952065;28;51084;-32
2023/05/02 00:15:19;;;;;;;;;18.33;16.33;;;;;-147.17;100.00;-15917.19;4949353;28;51482;-34
2023/05/02 00:17:44;;;;;;;;;15.00;13.33;;;;;-147.17;100.00;-15917.19;4951521;28;50945;-30
2023/05/02 00:20:11;;;;;;;;;17.00;15.33;;;;;-147.17;100.00;-15917.19;4951377;28;51094;-34
2023/05/02 00:22:37;;;;;;;;;16.33;16.00;;;;;-147.17;100.00;-15917.19;4951716;28;51200;-31
2023/05/02 00:25:02;;;;;;;;;15.33;14.00;;;;;-147.17;100.00;-15917.19;4949761;28;51400;-32
2023/05/02 00:27:29;;;;;;;;;19.67;17.00;;;;;-147.17;100.00;-15917.19;4951415;28;51037;-34
2023/05/02 00:29:54;;;;;;;;;17.00;16.33;;;;;-147.17;100.00;-15917.19;4951656;28;51131;-32
2023/05/02 00:32:20;;;;;;;;;16.33;14.00;;;;;-147.17;100.00;-15917.19;4951843;28;51093;-34
2023/05/02 00:34:45;;;;;;;;;16.67;15.33;;;;;-147.17;100.00;-15917.19;4951933;28;59193;-34
2023/05/02 00:37:11;;;;;;;;;18.33;15.67;;;;;-147.17;100.00;-15917.19;4950842;28;51159;-33
2023/05/02 00:39:37;;;;;;;;;16.00;13.33;;;;;-147.17;100.00;-15917.19;4951703;28;50974;-32
2023/05/02 00:42:02;;;;;;;;;14.33;13.67;;;;;-147.17;100.00;-15917.19;4950323;28;51087;-34
2023/05/02 00:44:28;;;;;;;;;16.00;13.67;;;;;-147.17;100.00;-15917.19;4950916;28;53844;-34
2023/05/02 00:46:54;;;;;;;;;18.67;15.67;;;;;-147.17;100.00;-15917.19;4949717;28;51180;-31
2023/05/02 00:49:20;;;;;;;;;15.00;14.00;;;;;-147.17;100.00;-15917.19;4950355;28;50890;-33
2023/05/02 00:51:45;;;;;;;;;15.00;14.00;;;;;-147.17;100.00;-15917.19;4951288;28;50971;-33
2023/05/02 00:54:12;;;;;;;;;16.67;16.00;;;;;-147.17;100.00;-15917.19;4951245;28;51709;-33
2023/05/02 00:56:37;;;;;;;;;15.67;14.00;;;;;-147.17;100.00;-15917.19;4950561;28;51061;-33
2023/05/02 00:59:04;;;;;;;;;14.67;13.67;;;;;-147.17;100.00;-15917.19;4951311;28;51295;-32
2023/05/02 01:02:01;;;;;;;;;17.00;14.00;;;;;-147.17;100.00;-15917.19;4952235;28;51121;-34
2023/05/02 01:04:45;;;;;;;;;15.67;14.00;;;;;-147.17;100.00;-15917.19;4951364;28;51033;-33
2023/05/02 01:07:22;;;;;;;;;14.00;13.67;;;;;-147.17;100.00;-15917.19;4949130;28;51072;-34
2023/05/02 01:10:16;;;;;;;;;13.67;12.00;;;;;-147.17;100.00;-15917.19;4951353;28;51047;-32
2023/05/02 01:12:49;;;;;;;;;13.67;12.00;;;;;-147.17;100.00;-15917.19;4951537;28;50919;-33
2023/05/02 01:15:18;;;;;;;;;13.00;12.67;;;;;-147.17;100.00;-15917.19;4950383;28;51876;-32
2023/05/02 01:17:46;;;;;;;;;16.67;13.67;;;;;-147.17;100.00;-15917.19;4949184;28;51063;-33
2023/05/02 01:20:15;;;;;;;;;18.00;16.33;;;;;-147.17;100.00;-15917.19;4951990;28;51030;-31
2023/05/02 01:22:40;;;;;;;;;14.00;13.33;;;;;-147.17;100.00;-15917.19;4950816;28;51256;-32
2023/05/02 01:25:17;;;;;;;;;14.67;14.00;;;;;-147.17;100.00;-15917.19;4950234;28;51896;-34
2023/05/02 01:28:13;;;;;;;;;13.00;13.00;;;;;-147.17;100.00;-15917.19;4952946;28;52186;-32
2023/05/02 01:30:43;;;;;;;;;13.00;12.67;;;;;-147.17;100.00;-15917.19;4954743;28;51077;-32
2023/05/02 01:33:12;;;;;;;;;11.33;11.33;;;;;-147.17;100.00;-15917.19;4945710;28;51762;-33
2023/05/02 01:35:39;;;;;;;;;15.33;13.00;;;;;-147.17;100.00;-15917.19;4954369;28;51899;-33
2023/05/02 01:38:05;;;;;;;;;13.67;13.00;;;;;-147.17;100.00;-15917.19;4952623;28;50876;-34
2023/05/02 01:40:33;;;;;;;;;14.00;12.00;;;;;-147.17;100.00;-15917.19;4954044;28;51092;-34
2023/05/02 01:42:59;;;;;;;;;13.00;12.67;;;;;-147.17;100.00;-15917.19;4942403;28;50962;-31
2023/05/02 01:45:28;;;;;;;;;15.33;15.00;;;;;-147.17;100.00;-15917.19;4952280;28;51831;-31
2023/05/02 01:47:53;;;;;;;;;10.33;8.33;;;;;-147.17;100.00;-15917.19;4953462;28;51033;-33
2023/05/02 01:50:23;;;;;;;;;16.67;15.33;;;;;-147.17;100.00;-15917.19;4953885;28;51186;-34
2023/05/02 01:52:51;;;;;;;;;15.00;13.00;;;;;-147.17;100.00;-15917.19;4953797;28;51272;-34
2023/05/02 01:55:17;;;;;;;;;16.67;14.00;;;;;-147.17;100.00;-15917.19;4952774;28;51084;-34
2023/05/02 01:57:45;;;;;;;;;15.67;13.67;;;;;-147.17;100.00;-15917.19;4953077;28;51169;-33
2023/05/02 02:00:12;;;;;;;;;13.67;12.67;;;;;-147.17;100.00;-15917.19;4954956;28;51010;-31
2023/05/02 02:02:41;;;;;;;;;15.33;14.33;;;;;-147.17;100.00;-15917.19;4954040;28;51264;-35
2023/05/02 02:05:08;;;;;;;;;16.33;14.00;;;;;-147.17;100.00;-15917.19;4951825;28;51146;-33
2023/05/02 02:07:33;;;;;;;;;14.00;12.67;;;;;-147.17;100.00;-15917.19;4952386;28;50958;-33
2023/05/02 02:09:59;;;;;;;;;10.67;10.00;;;;;-147.17;100.00;-15917.19;4950221;28;51121;-30
2023/05/02 02:12:40;;;;;;;;;13.00;12.67;;;;;-147.17;100.00;-15917.19;4949204;28;50946;-33
2023/05/02 02:15:12;;;;;;;;;14.00;12.67;;;;;-147.17;100.00;-15917.19;4952609;28;51990;-33
2023/05/02 02:17:52;;;;;;;;;13.33;13.33;;;;;-147.17;100.00;-15917.19;4952815;28;51232;-34
2023/05/02 02:20:18;;;;;;;;;12.67;12.33;;;;;-147.17;100.00;-15917.19;4954842;28;51094;-33
2023/05/02 02:22:44;;;;;;;;;15.00;13.00;;;;;-147.17;100.00;-15917.19;4951630;28;51326;-33
2023/05/02 02:25:11;;;;;;;;;13.67;12.67;;;;;-147.17;100.00;-15917.19;4953631;28;51859;-33
2023/05/02 02:27:37;;;;;;;;;12.33;12.00;;;;;-147.17;100.00;-15917.19;4952737;28;51002;-34
2023/05/02 02:30:03;;;;;;;;;12.00;11.67;;;;;-147.17;100.00;-15917.19;4953631;28;51062;-32
2023/05/02 02:32:28;;;;;;;;;13.00;12.00;;;;;-147.17;100.00;-15917.19;4936337;28;51312;-32
2023/05/02 02:34:54;;;;;;;;;13.67;13.67;;;;;-147.17;100.00;-15917.19;4952635;28;51662;-32
2023/05/02 02:37:27;;;;;;;;;12.33;12.00;;;;;-147.17;100.00;-15917.19;4952258;28;51124;-33
2023/05/02 02:40:16;;;;;;;;;12.33;12.00;;;;;-147.17;100.00;-15917.19;4952970;28;51102;-31
2023/05/02 02:42:58;;;;;;;;;11.67;10.33;;;;;-147.17;100.00;-15917.19;4953753;28;51134;-33
2023/05/02 02:45:26;;;;;;;;;13.00;11.67;;;;;-147.17;100.00;-15917.19;4952144;28;51285;-31
2023/05/02 02:48:10;;;;;;;;;11.67;11.33;;;;;-147.17;100.00;-15917.19;4951568;28;50890;-33
2023/05/02 02:50:48;;;;;;;;;15.00;11.67;;;;;-147.17;100.00;-15917.19;4943429;28;51011;-33
2023/05/02 02:53:24;;;;;;;;;11.00;9.00;;;;;-147.17;100.00;-15917.19;4951320;28;51043;-33
2023/05/02 02:55:59;;;;;;;;;13.67;12.33;;;;;-147.17;100.00;-15917.19;4948262;28;51941;-32
2023/05/02 02:58:55;;;;;;;;;13.00;12.00;;;;;-147.17;100.00;-15917.19;4951141;28;51298;-32
2023/05/02 03:01:23;;;;;;;;;11.33;9.67;;;;;-147.17;100.00;-15917.19;4950691;28;51018;-33
2023/05/02 03:03:50;;;;;;;;;12.67;11.33;;;;;-147.17;100.00;-15917.19;4952298;28;51238;-33
2023/05/02 03:06:17;;;;;;;;;12.33;11.00;;;;;-147.17;100.00;-15917.19;4951666;28;51138;-31
2023/05/02 03:08:43;;;;;;;;;10.50;10.00;;;;;-147.17;100.00;-15917.19;4952401;28;51128;-33
2023/05/02 03:11:09;;;;;;;;;11.00;10.33;;;;;-147.17;100.00;-15917.19;4951686;28;51603;-34
2023/05/02 03:13:37;;;;;;;;;12.33;11.00;;;;;-147.17;100.00;-15917.19;4953203;28;51180;-33
2023/05/02 03:16:28;;;;;;;;;13.00;12.33;;;;;-147.17;100.00;-15917.19;4950884;28;51157;-33
2023/05/02 03:18:53;;;;;;;;;8.67;8.67;;;;;-147.17;100.00;-15917.19;4951275;28;50954;-30
2023/05/02 03:21:19;;;;;;;;;10.33;10.33;;;;;-147.17;100.00;-15917.19;4950899;28;51156;-33
2023/05/02 03:23:44;;;;;;;;;12.67;12.67;;;;;-147.17;100.00;-15917.19;4953057;28;51367;-31
2023/05/02 03:26:09;;;;;;;;;10.33;10.33;;;;;-147.17;100.00;-15917.19;4953085;28;59639;-31
2023/05/02 03:28:35;;;;;;;;;11.67;11.00;;;;;-147.17;100.00;-15917.19;4952550;28;50978;-32
2023/05/02 03:31:01;;;;;;;;;11.33;11.33;;;;;-147.17;100.00;-15917.19;4950984;28;51057;-32
2023/05/02 03:33:26;;;;;;;;;12.00;10.00;;;;;-147.17;100.00;-15917.19;4952735;28;51161;-34
2023/05/02 03:35:51;;;;;;;;;11.00;10.67;;;;;-147.17;100.00;-15917.19;4952853;28;65041;-33
2023/05/02 03:38:16;;;;;;;;;11.67;11.33;;;;;-147.17;100.00;-15917.19;4952100;28;54308;-34
2023/05/02 03:40:42;;;;;;;;;7.00;7.00;;;;;-147.17;100.00;-15917.19;4953286;28;51061;-32
2023/05/02 03:43:07;;;;;;;;;9.00;9.00;;;;;-147.17;100.00;-15917.19;4949201;28;53459;-34
2023/05/02 03:45:33;;;;;;;;;10.67;10.00;;;;;-147.17;100.00;-15917.19;4952337;28;51985;-32
2023/05/02 03:47:59;;;;;;;;;11.33;11.33;;;;;-147.17;100.00;-15917.19;4951503;28;51029;-33
2023/05/02 03:50:24;;;;;;;;;10.00;10.00;;;;;-147.17;100.00;-15917.19;4949278;28;51140;-34
2023/05/02 03:52:49;;;;;;;;;8.67;8.67;;;;;-147.17;100.00;-15917.19;4951810;28;51311;-31
2023/05/02 03:55:15;;;;;;;;;11.00;10.67;;;;;-147.17;100.00;-15917.19;4951969;28;54631;-31
2023/05/02 03:57:40;;;;;;;;;9.67;9.00;;;;;-147.17;100.00;-15917.19;4951998;28;51029;-33
2023/05/02 04:00:06;;;;;;;;;11.00;11.00;;;;;-147.17;100.00;-15917.19;4951482;28;51275;-31
2023/05/02 04:02:32;;;;;;;;;10.00;10.00;;;;;-147.17;100.00;-15917.19;4953351;28;50865;-34
2023/05/02 04:04:57;;;;;;;;;12.33;10.00;;;;;-147.17;100.00;-15917.19;4951551;28;60359;-32
2023/05/02 04:07:24;;;;;;;;;9.33;9.00;;;;;-147.17;100.00;-15917.19;4950478;28;53736;-30
2023/05/02 04:09:50;;;;;;;;;11.00;11.00;;;;;-147.17;100.00;-15917.19;4950067;28;51198;-33
2023/05/02 04:12:16;;;;;;;;;9.00;7.67;;;;;-147.17;100.00;-15917.19;4951907;28;51385;-33
2023/05/02 04:14:41;;;;;;;;;9.00;8.33;;;;;-147.17;100.00;-15917.19;4951406;28;52774;-31
2023/05/02 04:17:06;;;;;;;;;10.00;10.00;;;;;-147.17;100.00;-15917.19;4947510;28;51175;-33
2023/05/02 04:19:33;;;;;;;;;9.33;7.67;;;;;-147.17;100.00;-15917.19;4950311;28;51089;-34
2023/05/02 04:21:58;;;;;;;;;11.67;11.67;;;;;-147.17;100.00;-15917.19;4950404;28;50954;-33
2023/05/02 04:24:23;;;;;;;;;9.67;9.00;;;;;-147.17;100.00;-15917.19;4951671;28;51986;-33
2023/05/02 04:26:49;;;;;;;;;10.33;10.00;;;;;-147.17;100.00;-15917.19;4949494;28;51039;-32
2023/05/02 04:29:14;;;;;;;;;10.00;9.67;;;;;-147.17;100.00;-15917.19;4950681;28;51130;-33
2023/05/02 04:31:40;;;;;;;;;10.67;9.67;;;;;-147.17;100.00;-15917.19;4951247;28;51363;-31
2023/05/02 04:34:06;;;;;;;;;10.00;9.00;;;;;-147.17;100.00;-15917.19;4951189;28;51829;-34
2023/05/02 04:36:31;;;;;;;;;11.00;10.00;;;;;-147.17;100.00;-15917.19;4952096;28;51026;-34
2023/05/02 04:38:57;;;;;;;;;9.00;9.00;;;;;-147.17;100.00;-15917.19;4950195;28;51031;-34
2023/05/02 04:41:22;;;;;;;;;11.33;10.33;;;;;-147.17;100.00;-15917.19;4951898;28;50931;-34
2023/05/02 04:43:47;;;;;;;;;12.33;12.00;;;;;-147.17;100.00;-15917.19;4951243;28;52067;-33
2023/05/02 04:46:13;;;;;;;;;10.00;9.67;;;;;-147.17;100.00;-15917.19;4952390;28;50812;-34
2023/05/02 04:48:41;;;;;;;;;9.00;9.00;;;;;-147.17;100.00;-15917.19;4951400;28;51009;-34
2023/05/02 04:51:08;;;;;;;;;10.67;9.67;;;;;-147.17;100.00;-15917.19;4936164;28;51253;-33
2023/05/02 04:53:33;;;;;;;;;10.33;10.33;;;;;-147.17;100.00;-15917.19;4950833;28;51886;-34
2023/05/02 04:55:59;;;;;;;;;11.00;10.33;;;;;-147.17;100.00;-15917.19;4949381;28;51038;-34
2023/05/02 04:58:24;;;;;;;;;11.67;11.67;;;;;-147.17;100.00;-15917.19;4950302;28;50929;-33
2023/05/02 05:00:49;;;;;;;;;10.33;9.33;;;;;-147.17;100.00;-15917.19;4949260;28;51295;-33
2023/05/02 05:03:14;;;;;;;;;12.00;9.67;;;;;-147.17;100.00;-15917.19;4949454;28;59416;-34
2023/05/02 05:05:40;;;;;;;;;14.67;13.33;;;;;-147.17;100.00;-15917.19;4950846;28;58319;-33
2023/05/02 05:08:05;;;;;;;;;13.00;12.67;;;;;-147.17;100.00;-15917.19;4950168;28;51570;-33
2023/05/02 05:10:31;;;;;;;;;12.00;11.00;;;;;-147.17;100.00;-15917.19;4952035;28;50855;-34
2023/05/02 05:12:56;;;;;;;;;13.33;12.00;;;;;-147.17;100.00;-15917.19;4950624;28;56525;-32
2023/05/02 05:15:22;;;;;;;;;11.33;11.00;;;;;-147.17;100.00;-15917.19;4949262;28;51213;-33
2023/05/02 05:17:48;;;;;;;;;12.67;11.67;;;;;-147.17;100.00;-15917.19;4951654;28;50985;-31
2023/05/02 05:20:13;;;;;;;;;9.00;9.00;;;;;-147.17;100.00;-15917.19;4949349;28;51285;-34
2023/05/02 05:22:40;;;;;;;;;11.00;10.00;;;;;-147.17;100.00;-15917.19;4949819;28;51857;-34
2023/05/02 05:25:06;;;;;;;;;13.67;11.00;;;;;-147.17;100.00;-15917.19;4951314;28;51105;-33
2023/05/02 05:27:33;;;;;;;;;13.33;11.67;;;;;-147.17;100.00;-15917.19;4949822;28;51207;-34
2023/05/02 05:29:58;;;;;;;;;13.33;11.00;;;;;-147.17;100.00;-15917.19;4950813;28;51224;-32
2023/05/02 05:32:24;;;;;;;;;11.00;10.00;;;;;-147.17;100.00;-15917.19;4942534;28;52292;-34
2023/05/02 05:34:53;;;;;;;;;11.33;11.00;;;;;-147.17;100.00;-15917.19;4948695;28;50955;-34
2023/05/02 05:37:20;;;;;;;;;11.00;9.33;;;;;-147.17;100.00;-15917.19;4948367;28;51076;-31
2023/05/02 05:39:45;;;;;;;;;11.00;9.33;;;;;-147.17;100.00;-15917.19;4949972;28;51709;-31
2023/05/02 05:42:11;;;;;;;;;10.67;10.00;;;;;-147.17;100.00;-15917.19;4948993;28;51751;-31
2023/05/02 05:44:37;;;;;;;;;12.00;12.00;;;;;-147.17;100.00;-15917.19;4950978;28;51049;-34
2023/05/02 05:47:02;;;;;;;;;11.67;11.33;;;;;-147.17;100.00;-15917.19;4949998;28;51191;-34
2023/05/02 05:49:27;;;;;;;;;12.67;11.67;;;;;-147.17;100.00;-15917.19;4949420;28;51441;-33
2023/05/02 05:51:52;;;;;;;;;11.00;11.00;;;;;-147.17;100.00;-15917.19;4949462;28;64165;-33
2023/05/02 05:54:18;;;;;;;;;12.00;11.33;;;;;-147.17;100.00;-15917.19;4950514;28;51026;-34
2023/05/02 05:56:44;;;;;;;;;14.00;12.67;;;;;-147.17;100.00;-15917.19;4962394;28;51136;-33
2023/05/02 05:59:09;;;;;;;;;10.67;9.67;;;;;-147.17;100.00;-15917.19;4950479;28;51070;-33
2023/05/02 06:01:35;;;;;;;;;13.00;11.67;;;;;-147.17;100.00;-15917.19;4947025;28;51728;-34
2023/05/02 06:04:01;;;;;;;;;10.33;10.33;;;;;-147.17;100.00;-15917.19;4950892;28;50973;-32
2023/05/02 06:06:27;;;;;;;;;10.67;9.67;;;;;-147.17;100.00;-15917.19;4949514;28;51348;-33
2023/05/02 06:08:53;;;;;;;;;8.00;7.33;;;;;-147.17;100.00;-15917.19;4949612;28;51184;-33
2023/05/02 06:11:19;;;;;;;;;11.33;10.33;;;;;-147.17;100.00;-15917.19;4943490;28;52710;-34
2023/05/02 06:13:44;;;;;;;;;12.33;11.00;;;;;-147.17;100.00;-15917.19;4952445;28;51066;-33
2023/05/02 06:16:09;;;;;;;;;10.33;10.33;;;;;-147.17;100.00;-15917.19;4952216;28;51672;-32
2023/05/02 06:18:35;;;;;;;;;11.33;10.00;;;;;-147.17;100.00;-15917.19;4952914;28;51089;-35
2023/05/02 06:21:04;;;;;;;;;9.67;9.67;;;;;-147.17;100.00;-15917.19;4953032;28;50966;-33
2023/05/02 06:23:29;;;;;;;;;12.67;10.33;;;;;-147.17;100.00;-15917.19;4953126;28;50916;-31
2023/05/02 06:25:59;;;;;;;;;11.00;10.00;;;;;-147.17;100.00;-15917.19;4954157;28;51091;-31
2023/05/02 06:28:24;;;;;;;;;8.00;7.00;;;;;-147.17;100.00;-15917.19;4954223;28;51267;-33
2023/05/02 06:31:00;;;;;;;;;9.00;8.00;;;;;-147.17;100.00;-15917.19;4955182;28;52197;-34
2023/05/02 06:33:27;;;;;;;;;12.00;12.00;;;;;-147.17;100.00;-15917.19;4950951;28;51024;-33
2023/05/02 06:35:52;;;;;;;;;12.00;11.00;;;;;-147.17;100.00;-15917.19;4953589;28;51158;-34
2023/05/02 06:38:18;;;;;;;;;11.33;10.67;;;;;-147.17;100.00;-15917.19;4953770;28;51065;-33
2023/05/02 06:40:44;;;;;;;;;11.00;9.00;;;;;-147.17;100.00;-15917.19;4952609;28;51753;-31
2023/05/02 06:43:10;;;;;;;;;11.33;10.67;;;;;-147.17;100.00;-15917.19;4953061;28;50880;-34
2023/05/02 06:45:35;;;;;;;;;11.67;11.00;;;;;-147.17;100.00;-15917.19;4953054;28;51098;-33
2023/05/02 06:48:00;;;;;;;;;10.00;9.33;;;;;-147.17;100.00;-15917.19;4951112;28;51323;-33
2023/05/02 06:50:26;;;;;;;;;9.00;9.00;;;;;-147.17;100.00;-15917.19;4952134;28;52917;-33
2023/05/02 06:52:51;;;;;;;;;9.33;8.67;;;;;-147.17;100.00;-15917.19;4952341;28;52495;-32
2023/05/02 06:55:16;;;;;;;;;11.67;10.00;;;;;-147.17;100.00;-15917.19;4951799;28;51070;-33
2023/05/02 06:57:42;;;;;;;;;10.00;9.67;;;;;-147.17;100.00;-15917.19;4944328;28;51384;-32
2023/05/02 07:00:08;;;;;;;;;10.00;9.67;;;;;-147.17;100.00;-15917.19;4952246;28;51816;-33
2023/05/02 07:02:34;;;;;;;;;10.00;9.00;;;;;-147.17;100.00;-15917.19;4951877;28;50880;-32
2023/05/02 07:04:59;;;;;;;;;9.00;9.00;;;;;-147.17;100.00;-15917.19;4953318;28;51101;-31
2023/05/02 07:07:25;;;;;;;;;10.00;8.33;;;;;-147.17;100.00;-15917.19;4952112;28;51279;-34
2023/05/02 07:09:51;;;;;;;;;11.00;10.00;;;;;-147.17;100.00;-15917.19;4951013;28;51682;-34
2023/05/02 07:12:16;;;;;;;;;11.33;8.33;;;;;-147.17;100.00;-15917.19;4950970;28;51261;-32
2023/05/02 07:14:42;;;;;;;;;10.33;10.00;;;;;-147.17;100.00;-15917.19;4950887;28;50974;-33
2023/05/02 07:17:07;;;;;;;;;10.00;8.67;;;;;-147.17;100.00;-15917.19;4950165;28;51434;-32
2023/05/02 07:19:33;;;;;;;;;12.33;10.67;;;;;-147.17;100.00;-15917.19;4948823;28;52226;-31
2023/05/02 07:21:58;;;;;;;;;9.33;8.67;;;;;-147.17;100.00;-15917.19;4948068;28;51438;-30
2023/05/02 07:24:23;;;;;;;;;9.67;9.67;;;;;-147.17;100.00;-15917.19;4951034;28;51243;-33
2023/05/02 07:26:49;;;;;;;;;9.67;9.33;;;;;-147.17;100.00;-15917.19;4953219;28;51373;-25
2023/05/02 07:29:14;;;;;;;;;9.33;9.00;;;;;-147.17;100.00;-15917.19;4950997;28;51767;-25
2023/05/02 07:31:39;;;;;;;;;9.00;8.00;;;;;-147.17;100.00;-15917.19;4952225;28;58462;-25
2023/05/02 07:34:05;;;;;;;;;12.00;9.33;;;;;-147.17;100.00;-15917.19;4951374;28;50856;-25
2023/05/02 07:36:31;;;;;;;;;10.00;9.33;;;;;-147.17;100.00;-15917.19;4953073;28;51239;-25
2023/05/02 07:38:56;;;;;;;;;12.67;10.67;;;;;-147.17;100.00;-15917.19;4951257;28;52995;-25
2023/05/02 07:41:22;;;;;;;;;13.00;12.00;;;;;-147.17;100.00;-15917.19;4950582;28;51103;-25
2023/05/02 07:43:47;;;;;;;;;11.33;11.00;;;;;-147.17;100.00;-15917.19;4951054;28;50967;-25
2023/05/02 07:46:12;;;;;;;;;11.33;11.00;;;;;-147.17;100.00;-15917.19;4950597;28;51369;-26
2023/05/02 07:48:38;;;;;;;;;10.00;9.67;;;;;-147.17;100.00;-15917.19;4935488;28;51777;-25
2023/05/02 07:51:08;;;;;;;;;13.33;13.00;;;;;-147.17;100.00;-15917.19;4951946;28;50945;-25
2023/05/02 07:53:33;;;;;;;;;12.33;12.33;;;;;-147.17;100.00;-15917.19;4933459;28;51065;-25
2023/05/02 07:55:58;;;;;;;;;15.00;14.33;;;;;-147.17;100.00;-15917.19;4951907;28;51248;-25
2023/05/02 07:58:24;;;;;;;;;12.67;11.00;;;;;-147.17;100.00;-15917.19;4951114;28;62536;-26
2023/05/02 08:00:49;;;;;;;;;17.67;17.00;;;;;-147.17;100.00;-15917.19;4951702;28;51049;-25
2023/05/02 08:03:14;;;;;;;;;13.33;13.00;;;;;-147.17;100.00;-15917.19;4948770;28;51045;-26
2023/05/02 08:05:40;;;;;;;;;15.00;14.33;;;;;-147.17;100.00;-15917.19;4951339;28;51234;-25
2023/05/02 08:08:06;;;;;;;;;13.67;13.67;;;;;-147.17;100.00;-15917.19;4950940;28;52164;-26
2023/05/02 08:10:31;;;;;;;;;18.00;17.33;;;;;-147.17;100.00;-15917.19;4944522;28;51145;-25
2023/05/02 08:16:59;;;;;;;;;33.00;30.00;;;;;-147.17;100.00;-14429.16;5073196;27;51037;-43
2023/05/02 08:19:24;;;;;;;;;29.50;27.50;;;;;-147.17;100.00;-13189.88;5068956;28;51218;-43
2023/05/02 08:21:50;;;;;;;;;24.00;23.25;;;;;-147.17;100.00;-11950.22;5068771;27;51239;-43
2023/05/02 08:24:15;;;;;;;;;30.75;26.75;;;;;-147.17;100.00;-11454.25;5065122;27;51676;-43
2023/05/02 08:26:40;;;;;;;;;22.75;21.25;;;;;-147.17;100.00;-10214.00;5062749;28;54332;-43
2023/05/02 08:29:05;;;;;;;;;20.25;17.50;;;;;-147.17;100.00;-9717.81;5062605;27;51168;-44
2023/05/02 08:31:31;;;;;;;;;23.75;22.00;;;;;-147.17;100.00;-9221.53;5058392;28;51346;-43
2023/05/02 08:33:56;;;;;;;;;28.00;27.25;;;;;-147.17;100.00;-9221.53;5058074;28;51092;-43
2023/05/02 08:36:22;;;;;;;;;19.50;18.00;;;;;-147.17;100.00;-8973.38;5056874;28;51088;-44
2023/05/02 08:38:48;;;;;;;;;21.75;21.75;;;;;-147.17;100.00;-7980.59;5061163;28;51057;-44
2023/05/02 08:41:17;;;;;;;;;22.75;21.25;;;;;-147.17;100.00;-7732.34;5056337;28;51126;-45
2023/05/02 08:43:43;;;;;;;;;19.25;18.25;;;;;-147.17;100.00;-7980.59;5066655;28;52350;-44
2023/05/02 08:46:11;;;;;;;;;23.75;21.00;;;;;-147.17;100.00;-7732.34;5057700;28;50963;-45
2023/05/02 08:48:38;;;;;;;;;21.25;19.75;;;;;-147.17;100.00;-7235.84;5064245;28;51158;-44
2023/05/02 08:51:08;;;;;;;;;23.75;22.00;;;;;-147.17;100.00;-6739.25;5068778;28;50946;-44
2023/05/02 08:53:34;;;;;;;;;23.00;20.75;;;;;-147.17;100.00;-6987.56;5068507;28;52546;-44
2023/05/02 08:56:00;;;;;;;;;25.50;23.00;;;;;-147.17;100.00;-6987.56;5053115;27;51426;-44
2023/05/02 08:58:25;;;;;;;;;25.75;23.25;;;;;-147.17;100.00;-6490.94;5062975;28;50943;-44
2023/05/02 09:00:52;;;;;;;;;22.00;21.00;;;;;-147.17;100.00;-6490.94;5061705;28;51210;-44
2023/05/02 09:03:31;;;;;;;;;27.25;23.75;;;;;-147.17;100.00;-6490.94;5068753;28;51413;-44
2023/05/02 09:06:09;;;;;;;;;23.75;22.00;;;;;-147.17;100.00;-5994.25;5061484;27;51047;-43
2023/05/02 09:08:35;;;;;;;;;25.25;23.00;;;;;-147.17;100.00;-6242.59;5061206;27;51085;-43
2023/05/02 09:11:02;;;;;;;;;20.00;20.00;;;;;-147.17;100.00;-6242.59;5068406;28;51138;-43
2023/05/02 09:13:29;;;;;;;;;26.00;24.50;;;;;-147.17;100.00;-6242.59;5066471;28;51843;-43
2023/05/02 09:16:09;;;;;;;;;33.00;30.75;;;;;-147.17;100.00;-5994.25;5078050;27;51411;-45
2023/05/02 09:18:38;;;;;;;;;32.75;30.25;;;;;-147.17;100.00;-6242.59;5075650;27;51192;-43
2023/05/02 09:21:07;;;;;;;;;33.50;31.50;;;;;-147.17;100.00;-6490.94;5088463;27;51075;-44
2023/05/02 09:23:37;;;;;;;;;38.00;31.50;;;;;-147.17;100.00;-6739.25;5070267;27;51880;-44
2023/05/02 09:26:16;;;;;;;;;38.50;34.00;;;;;-147.17;100.00;-6987.56;5081384;27;51100;-44
2023/05/02 09:28:46;;;;;;;;;36.25;32.00;;;;;-147.17;100.00;-7235.84;5066653;28;51083;-44
2023/05/02 09:31:19;;;;;;;;;42.25;34.75;;;;;-147.17;100.00;-6987.56;5049767;28;51223;-44
2023/05/02 09:33:45;;;;;;;;;38.75;33.75;;;;;-147.17;100.00;-7235.84;5072868;28;51100;-44
2023/05/02 09:36:13;;;;;;;;;38.75;32.75;;;;;-147.17;100.00;-6490.94;5074488;28;51184;-42
2023/05/02 09:38:39;;;;;;;;;37.00;33.25;;;;;-147.17;100.00;-5994.25;5074802;28;51206;-44
2023/05/02 09:41:05;;;;;;;;;44.50;37.00;;;;;-147.17;100.00;-5745.88;5074579;28;51062;-45
2023/05/02 09:43:31;;;;;;;;;35.00;32.75;;;;;-147.17;100.00;-6242.59;5074540;28;51908;-44
2023/05/02 09:46:02;;;;;;;;;36.25;32.25;;;;;-147.17;100.00;-7235.84;5075010;28;50957;-44
2023/05/02 09:48:29;;;;;;;;;36.50;32.25;;;;;-147.17;100.00;-7980.59;5074825;28;51017;-44
2023/05/02 09:50:55;;;;;;;;;32.50;31.00;;;;;-147.17;100.00;-6987.56;5075018;28;50949;-44
2023/05/02 09:53:23;;;;;;;;;33.25;27.75;;;;;-147.17;100.00;-7235.84;5074356;28;51867;-44
2023/05/02 09:55:58;;;;;;;;;32.50;31.50;;;;;-147.17;100.00;-7980.59;5074862;28;50860;-43
2023/05/02 09:58:24;;;;;;;;;30.00;27.75;;;;;-147.17;100.00;-8228.81;5074671;28;51094;-46
2023/05/02 10:00:53;;;;;;;;;25.75;23.75;;;;;-147.17;100.00;-8228.81;5075000;28;51176;-43
2023/05/02 10:03:18;;;;;;;;;27.75;26.50;;;;;-147.17;100.00;-7484.09;5074562;28;51749;-43
2023/05/02 10:05:45;;;;;;;;;28.00;25.25;;;;;-147.17;100.00;-7235.84;5073212;28;51068;-45
2023/05/02 10:08:12;;;;;;;;;31.75;30.00;;;;;-147.17;100.00;-8228.81;5074299;28;50868;-44
2023/05/02 10:10:39;;;;;;;;;21.00;20.50;;;;;-147.17;100.00;-8228.81;5074586;28;50866;-44
2023/05/02 10:13:07;;;;;;;;;31.00;26.00;;;;;-147.17;100.00;-8228.81;5074421;28;51001;-44
2023/05/02 10:15:39;;;;;;;;;26.25;25.50;;;;;-147.17;100.00;-8228.81;5073913;28;51059;-44
2023/05/02 10:18:13;;;;;;;;;27.50;25.50;;;;;-147.17;100.00;-8228.81;5074593;28;50958;-43
2023/05/02 10:20:43;;;;;;;;;27.25;24.50;;;;;-147.17;100.00;-7980.59;5074496;28;50875;-43
2023/05/02 10:23:09;;;;;;;;;23.75;23.25;;;;;-147.17;100.00;-7980.59;5073662;28;52716;-44
2023/05/02 10:25:35;;;;;;;;;25.25;22.00;;;;;-147.17;100.00;-7484.09;5073892;28;50989;-44
2023/05/02 10:28:02;;;;;;;;;21.25;19.00;;;;;-147.17;100.00;-6987.56;5074192;28;51071;-43
2023/05/02 10:30:29;;;;;;;;;20.00;20.00;;;;;-147.17;100.00;-6739.25;5074495;28;51170;-43
2023/05/02 10:32:58;;;;;;;;;19.00;18.75;;;;;-147.17;100.00;-5745.88;5073945;28;51151;-43
2023/05/02 10:35:25;;;;;;;;;20.25;18.75;;;;;-147.17;100.00;-5497.50;5073900;28;51139;-44
2023/05/02 10:37:51;;;;;;;;;20.25;18.75;;;;;-147.17;100.00;-5745.88;5073404;28;51184;-43
2023/05/02 10:40:17;;;;;;;;;20.50;20.25;;;;;-147.17;100.00;-5745.88;5073283;28;51146;-44
2023/05/02 10:42:46;;;;;;;;;20.00;19.00;;;;;-147.17;100.00;-5745.88;5073573;28;51223;-44
2023/05/02 10:45:34;;;;;;;;;25.25;24.00;;;;;-147.17;100.00;-5249.09;5055535;28;51215;-44
2023/05/02 10:48:21;;;;;;;;;17.25;17.25;;;;;-147.17;100.00;-4006.88;5073295;28;51009;-49
2023/05/02 10:50:48;;;;;;;;;19.00;19.00;;;;;-147.17;100.00;-3012.78;5073847;28;51079;-44
2023/05/02 10:53:30;;;;;;;;;19.75;18.00;;;;;-147.17;100.00;-2267.06;5072980;28;51917;-44
2023/05/02 10:56:13;;;;;;;;;20.25;20.25;;;;;-147.17;100.00;-1769.84;5073238;28;50938;-43